sensor_id;sensor_type;location;lat;lon;timestamp;P1;durP1;ratioP1;P2;durP2;ratioP2
13927;SDS011;7036;50.834;4.718;2023-07-30T00:00:45;1.90;;;1.37;;
13927;SDS011;7036;50.834;4.718;2023-07-30T00:03:12;1.87;;;1.50;;
13927;SDS011;7036;50.834;4.718;2023-07-30T00:05:39;1.40;;;1.30;;
13927;SDS011;7036;50.834;4.718;2023-07-30T00:08:06;2.20;;;1.37;;
13927;SDS011;7036;50.834;4.718;2023-07-30T00:10:32;1.30;;;1.20;;
13927;SDS011;7036;50.834;4.718;2023-07-30T00:12:59;1.60;;;1.50;;
13927;SDS011;7036;50.834;4.718;2023-07-30T00:15:26;2.77;;;1.50;;
13927;SDS011;7036;50.834;4.718;2023-07-30T00:17:53;2.00;;;1.40;;
13927;SDS011;7036;50.834;4.718;2023-07-30T00:20:20;1.73;;;1.47;;
13927;SDS011;7036;50.834;4.718;2023-07-30T00:22:47;3.13;;;1.40;;
13927;SDS011;7036;50.834;4.718;2023-07-30T00:25:14;1.53;;;1.43;;
13927;SDS011;7036;50.834;4.718;2023-07-30T00:27:41;2.23;;;1.40;;
13927;SDS011;7036;50.834;4.718;2023-07-30T00:30:08;2.83;;;1.57;;
13927;SDS011;7036;50.834;4.718;2023-07-30T00:32:35;1.97;;;1.60;;
13927;SDS011;7036;50.834;4.718;2023-07-30T00:35:02;2.30;;;1.50;;
13927;SDS011;7036;50.834;4.718;2023-07-30T00:37:29;1.77;;;1.40;;
13927;SDS011;7036;50.834;4.718;2023-07-30T00:39:56;2.00;;;1.60;;
13927;SDS011;7036;50.834;4.718;2023-07-30T00:42:23;2.33;;;1.47;;
13927;SDS011;7036;50.834;4.718;2023-07-30T00:44:50;1.50;;;1.40;;
13927;SDS011;7036;50.834;4.718;2023-07-30T00:47:16;3.50;;;1.63;;
13927;SDS011;7036;50.834;4.718;2023-07-30T00:49:43;1.53;;;1.10;;
13927;SDS011;7036;50.834;4.718;2023-07-30T00:52:10;2.10;;;1.47;;
13927;SDS011;7036;50.834;4.718;2023-07-30T00:54:37;2.90;;;1.73;;
13927;SDS011;7036;50.834;4.718;2023-07-30T00:57:04;2.57;;;1.53;;
13927;SDS011;7036;50.834;4.718;2023-07-30T00:59:32;2.90;;;1.60;;
13927;SDS011;7036;50.834;4.718;2023-07-30T01:01:59;3.63;;;1.70;;
13927;SDS011;7036;50.834;4.718;2023-07-30T01:04:26;1.67;;;1.40;;
13927;SDS011;7036;50.834;4.718;2023-07-30T01:06:52;2.47;;;1.63;;
13927;SDS011;7036;50.834;4.718;2023-07-30T01:09:19;1.53;;;1.43;;
13927;SDS011;7036;50.834;4.718;2023-07-30T01:11:46;2.20;;;1.60;;
13927;SDS011;7036;50.834;4.718;2023-07-30T01:14:13;1.87;;;1.63;;
13927;SDS011;7036;50.834;4.718;2023-07-30T01:16:40;2.50;;;1.60;;
13927;SDS011;7036;50.834;4.718;2023-07-30T01:19:07;3.73;;;1.50;;
13927;SDS011;7036;50.834;4.718;2023-07-30T01:21:34;2.33;;;1.70;;
13927;SDS011;7036;50.834;4.718;2023-07-30T01:24:01;2.13;;;1.53;;
13927;SDS011;7036;50.834;4.718;2023-07-30T01:26:32;3.33;;;1.40;;
13927;SDS011;7036;50.834;4.718;2023-07-30T01:28:58;2.17;;;1.57;;
13927;SDS011;7036;50.834;4.718;2023-07-30T01:31:25;2.07;;;1.57;;
13927;SDS011;7036;50.834;4.718;2023-07-30T01:33:52;2.33;;;1.57;;
13927;SDS011;7036;50.834;4.718;2023-07-30T01:36:18;2.03;;;1.20;;
13927;SDS011;7036;50.834;4.718;2023-07-30T01:38:45;4.20;;;1.50;;
13927;SDS011;7036;50.834;4.718;2023-07-30T01:41:11;2.83;;;1.80;;
13927;SDS011;7036;50.834;4.718;2023-07-30T01:43:38;2.03;;;1.30;;
13927;SDS011;7036;50.834;4.718;2023-07-30T01:46:05;2.07;;;1.40;;
13927;SDS011;7036;50.834;4.718;2023-07-30T01:48:32;2.23;;;1.60;;
13927;SDS011;7036;50.834;4.718;2023-07-30T01:50:59;3.23;;;1.70;;
13927;SDS011;7036;50.834;4.718;2023-07-30T01:53:26;3.80;;;1.50;;
13927;SDS011;7036;50.834;4.718;2023-07-30T01:55:53;2.93;;;1.47;;
13927;SDS011;7036;50.834;4.718;2023-07-30T01:58:20;1.80;;;1.57;;
13927;SDS011;7036;50.834;4.718;2023-07-30T02:00:48;1.67;;;1.40;;
13927;SDS011;7036;50.834;4.718;2023-07-30T02:03:15;1.63;;;1.50;;
13927;SDS011;7036;50.834;4.718;2023-07-30T02:05:42;1.80;;;1.37;;
13927;SDS011;7036;50.834;4.718;2023-07-30T02:08:09;2.27;;;1.60;;
13927;SDS011;7036;50.834;4.718;2023-07-30T02:10:36;2.17;;;1.37;;
13927;SDS011;7036;50.834;4.718;2023-07-30T02:13:02;4.30;;;1.50;;
13927;SDS011;7036;50.834;4.718;2023-07-30T02:15:29;2.40;;;1.83;;
13927;SDS011;7036;50.834;4.718;2023-07-30T02:17:56;3.30;;;1.83;;
13927;SDS011;7036;50.834;4.718;2023-07-30T02:20:23;3.47;;;1.60;;
13927;SDS011;7036;50.834;4.718;2023-07-30T02:22:50;2.63;;;1.60;;
13927;SDS011;7036;50.834;4.718;2023-07-30T02:25:17;2.57;;;1.80;;
13927;SDS011;7036;50.834;4.718;2023-07-30T02:27:44;3.83;;;1.77;;
13927;SDS011;7036;50.834;4.718;2023-07-30T02:30:12;3.03;;;1.67;;
13927;SDS011;7036;50.834;4.718;2023-07-30T02:32:39;3.33;;;1.30;;
13927;SDS011;7036;50.834;4.718;2023-07-30T02:35:06;3.27;;;1.40;;
13927;SDS011;7036;50.834;4.718;2023-07-30T02:37:34;3.23;;;1.60;;
13927;SDS011;7036;50.834;4.718;2023-07-30T02:40:00;2.43;;;1.63;;
13927;SDS011;7036;50.834;4.718;2023-07-30T02:42:27;1.70;;;1.40;;
13927;SDS011;7036;50.834;4.718;2023-07-30T02:44:54;2.33;;;1.70;;
13927;SDS011;7036;50.834;4.718;2023-07-30T02:47:21;2.13;;;1.43;;
13927;SDS011;7036;50.834;4.718;2023-07-30T02:49:48;4.13;;;1.70;;
13927;SDS011;7036;50.834;4.718;2023-07-30T02:52:15;2.27;;;1.57;;
13927;SDS011;7036;50.834;4.718;2023-07-30T02:54:42;2.20;;;1.50;;
13927;SDS011;7036;50.834;4.718;2023-07-30T02:57:09;5.00;;;1.90;;
13927;SDS011;7036;50.834;4.718;2023-07-30T02:59:36;1.60;;;1.27;;
13927;SDS011;7036;50.834;4.718;2023-07-30T03:02:03;3.00;;;1.60;;
13927;SDS011;7036;50.834;4.718;2023-07-30T03:04:30;3.73;;;1.43;;
13927;SDS011;7036;50.834;4.718;2023-07-30T03:06:57;2.10;;;1.83;;
13927;SDS011;7036;50.834;4.718;2023-07-30T03:09:23;1.63;;;1.17;;
13927;SDS011;7036;50.834;4.718;2023-07-30T03:11:53;2.03;;;1.47;;
13927;SDS011;7036;50.834;4.718;2023-07-30T03:14:20;3.13;;;1.40;;
13927;SDS011;7036;50.834;4.718;2023-07-30T03:16:47;2.43;;;1.23;;
13927;SDS011;7036;50.834;4.718;2023-07-30T03:19:14;1.77;;;1.40;;
13927;SDS011;7036;50.834;4.718;2023-07-30T03:21:41;2.87;;;1.70;;
13927;SDS011;7036;50.834;4.718;2023-07-30T03:24:08;3.43;;;1.50;;
13927;SDS011;7036;50.834;4.718;2023-07-30T03:26:35;5.30;;;1.80;;
13927;SDS011;7036;50.834;4.718;2023-07-30T03:29:02;3.03;;;1.83;;
13927;SDS011;7036;50.834;4.718;2023-07-30T03:31:29;2.57;;;1.70;;
13927;SDS011;7036;50.834;4.718;2023-07-30T03:33:55;3.10;;;1.70;;
13927;SDS011;7036;50.834;4.718;2023-07-30T03:36:22;2.20;;;1.57;;
13927;SDS011;7036;50.834;4.718;2023-07-30T03:38:49;2.93;;;1.50;;
13927;SDS011;7036;50.834;4.718;2023-07-30T03:41:16;2.50;;;1.43;;
13927;SDS011;7036;50.834;4.718;2023-07-30T03:43:43;2.77;;;1.33;;
13927;SDS011;7036;50.834;4.718;2023-07-30T03:46:10;2.53;;;1.43;;
13927;SDS011;7036;50.834;4.718;2023-07-30T03:48:37;3.17;;;1.70;;
13927;SDS011;7036;50.834;4.718;2023-07-30T03:51:04;4.20;;;1.70;;
13927;SDS011;7036;50.834;4.718;2023-07-30T03:53:31;3.47;;;1.47;;
13927;SDS011;7036;50.834;4.718;2023-07-30T03:55:58;2.13;;;1.50;;
13927;SDS011;7036;50.834;4.718;2023-07-30T03:58:25;2.23;;;1.50;;
13927;SDS011;7036;50.834;4.718;2023-07-30T04:00:52;1.73;;;1.13;;
13927;SDS011;7036;50.834;4.718;2023-07-30T04:03:19;4.07;;;1.70;;
13927;SDS011;7036;50.834;4.718;2023-07-30T04:05:46;4.07;;;1.57;;
13927;SDS011;7036;50.834;4.718;2023-07-30T04:08:13;1.70;;;1.30;;
13927;SDS011;7036;50.834;4.718;2023-07-30T04:10:39;1.93;;;1.37;;
13927;SDS011;7036;50.834;4.718;2023-07-30T04:13:06;3.97;;;1.77;;
13927;SDS011;7036;50.834;4.718;2023-07-30T04:15:33;1.90;;;1.40;;
13927;SDS011;7036;50.834;4.718;2023-07-30T04:18:00;2.23;;;1.63;;
13927;SDS011;7036;50.834;4.718;2023-07-30T04:20:27;2.53;;;1.50;;
13927;SDS011;7036;50.834;4.718;2023-07-30T04:22:54;2.73;;;1.47;;
13927;SDS011;7036;50.834;4.718;2023-07-30T04:25:21;2.13;;;1.30;;
13927;SDS011;7036;50.834;4.718;2023-07-30T04:27:48;1.93;;;1.43;;
13927;SDS011;7036;50.834;4.718;2023-07-30T04:30:15;2.20;;;1.43;;
13927;SDS011;7036;50.834;4.718;2023-07-30T04:32:43;2.33;;;1.33;;
13927;SDS011;7036;50.834;4.718;2023-07-30T04:35:10;2.77;;;1.40;;
13927;SDS011;7036;50.834;4.718;2023-07-30T04:37:37;2.37;;;1.33;;
13927;SDS011;7036;50.834;4.718;2023-07-30T04:40:04;2.90;;;1.30;;
13927;SDS011;7036;50.834;4.718;2023-07-30T04:42:31;2.70;;;1.33;;
13927;SDS011;7036;50.834;4.718;2023-07-30T04:44:58;2.63;;;1.43;;
13927;SDS011;7036;50.834;4.718;2023-07-30T04:47:25;1.40;;;1.30;;
13927;SDS011;7036;50.834;4.718;2023-07-30T04:49:52;2.40;;;1.60;;
13927;SDS011;7036;50.834;4.718;2023-07-30T04:52:19;2.93;;;1.50;;
13927;SDS011;7036;50.834;4.718;2023-07-30T04:54:46;2.80;;;1.57;;
13927;SDS011;7036;50.834;4.718;2023-07-30T04:57:12;3.23;;;1.70;;
13927;SDS011;7036;50.834;4.718;2023-07-30T04:59:39;3.07;;;1.60;;
13927;SDS011;7036;50.834;4.718;2023-07-30T05:02:06;2.13;;;1.33;;
13927;SDS011;7036;50.834;4.718;2023-07-30T05:04:33;2.00;;;1.40;;
13927;SDS011;7036;50.834;4.718;2023-07-30T05:07:01;2.03;;;1.63;;
13927;SDS011;7036;50.834;4.718;2023-07-30T05:09:28;2.23;;;1.50;;
13927;SDS011;7036;50.834;4.718;2023-07-30T05:11:55;2.97;;;1.40;;
13927;SDS011;7036;50.834;4.718;2023-07-30T05:14:22;2.63;;;1.70;;
13927;SDS011;7036;50.834;4.718;2023-07-30T05:16:49;3.40;;;1.60;;
13927;SDS011;7036;50.834;4.718;2023-07-30T05:19:16;3.43;;;1.30;;
13927;SDS011;7036;50.834;4.718;2023-07-30T05:21:42;2.03;;;1.30;;
13927;SDS011;7036;50.834;4.718;2023-07-30T05:24:09;3.50;;;1.33;;
13927;SDS011;7036;50.834;4.718;2023-07-30T05:26:36;2.17;;;1.43;;
13927;SDS011;7036;50.834;4.718;2023-07-30T05:29:03;4.10;;;1.83;;
13927;SDS011;7036;50.834;4.718;2023-07-30T05:31:30;1.97;;;1.50;;
13927;SDS011;7036;50.834;4.718;2023-07-30T05:33:57;2.90;;;1.60;;
13927;SDS011;7036;50.834;4.718;2023-07-30T05:36:24;2.30;;;1.43;;
13927;SDS011;7036;50.834;4.718;2023-07-30T05:38:51;3.90;;;1.60;;
13927;SDS011;7036;50.834;4.718;2023-07-30T05:41:18;3.47;;;1.70;;
13927;SDS011;7036;50.834;4.718;2023-07-30T05:43:45;3.10;;;1.47;;
13927;SDS011;7036;50.834;4.718;2023-07-30T05:46:12;2.73;;;1.50;;
13927;SDS011;7036;50.834;4.718;2023-07-30T05:48:39;3.37;;;1.40;;
13927;SDS011;7036;50.834;4.718;2023-07-30T05:51:05;2.40;;;1.43;;
13927;SDS011;7036;50.834;4.718;2023-07-30T05:53:32;1.97;;;1.50;;
13927;SDS011;7036;50.834;4.718;2023-07-30T05:55:59;2.77;;;1.10;;
13927;SDS011;7036;50.834;4.718;2023-07-30T05:58:26;3.13;;;1.60;;
13927;SDS011;7036;50.834;4.718;2023-07-30T06:00:53;3.87;;;1.80;;
13927;SDS011;7036;50.834;4.718;2023-07-30T06:03:20;2.53;;;1.23;;
13927;SDS011;7036;50.834;4.718;2023-07-30T06:05:47;2.70;;;1.43;;
13927;SDS011;7036;50.834;4.718;2023-07-30T06:08:14;4.70;;;1.27;;
13927;SDS011;7036;50.834;4.718;2023-07-30T06:10:41;1.40;;;1.30;;
13927;SDS011;7036;50.834;4.718;2023-07-30T06:13:08;3.57;;;1.60;;
13927;SDS011;7036;50.834;4.718;2023-07-30T06:15:35;2.53;;;1.20;;
13927;SDS011;7036;50.834;4.718;2023-07-30T06:18:02;1.63;;;1.20;;
13927;SDS011;7036;50.834;4.718;2023-07-30T06:20:29;2.87;;;1.37;;
13927;SDS011;7036;50.834;4.718;2023-07-30T06:22:55;1.80;;;1.53;;
13927;SDS011;7036;50.834;4.718;2023-07-30T06:25:22;2.43;;;1.37;;
13927;SDS011;7036;50.834;4.718;2023-07-30T06:27:49;2.63;;;1.53;;
13927;SDS011;7036;50.834;4.718;2023-07-30T06:30:16;2.20;;;1.83;;
13927;SDS011;7036;50.834;4.718;2023-07-30T06:32:46;3.10;;;1.67;;
13927;SDS011;7036;50.834;4.718;2023-07-30T06:35:10;1.87;;;1.33;;
13927;SDS011;7036;50.834;4.718;2023-07-30T06:37:37;2.33;;;1.53;;
13927;SDS011;7036;50.834;4.718;2023-07-30T06:40:04;2.87;;;1.40;;
13927;SDS011;7036;50.834;4.718;2023-07-30T06:42:31;3.60;;;1.40;;
13927;SDS011;7036;50.834;4.718;2023-07-30T06:44:58;2.80;;;1.83;;
13927;SDS011;7036;50.834;4.718;2023-07-30T06:47:25;2.70;;;1.60;;
13927;SDS011;7036;50.834;4.718;2023-07-30T06:49:52;3.07;;;1.27;;
13927;SDS011;7036;50.834;4.718;2023-07-30T06:52:19;1.93;;;1.53;;
13927;SDS011;7036;50.834;4.718;2023-07-30T06:54:46;2.03;;;1.40;;
13927;SDS011;7036;50.834;4.718;2023-07-30T06:57:13;5.30;;;1.67;;
13927;SDS011;7036;50.834;4.718;2023-07-30T06:59:40;5.40;;;2.07;;
13927;SDS011;7036;50.834;4.718;2023-07-30T07:02:07;6.00;;;2.10;;
13927;SDS011;7036;50.834;4.718;2023-07-30T07:04:34;3.57;;;1.93;;
13927;SDS011;7036;50.834;4.718;2023-07-30T07:07:01;6.20;;;2.40;;
13927;SDS011;7036;50.834;4.718;2023-07-30T07:09:27;5.40;;;2.27;;
13927;SDS011;7036;50.834;4.718;2023-07-30T07:11:54;5.77;;;2.77;;
13927;SDS011;7036;50.834;4.718;2023-07-30T07:14:21;7.43;;;2.53;;
13927;SDS011;7036;50.834;4.718;2023-07-30T07:16:48;4.90;;;2.00;;
13927;SDS011;7036;50.834;4.718;2023-07-30T07:19:16;6.83;;;2.57;;
13927;SDS011;7036;50.834;4.718;2023-07-30T07:21:44;5.30;;;2.10;;
13927;SDS011;7036;50.834;4.718;2023-07-30T07:24:10;4.80;;;2.20;;
13927;SDS011;7036;50.834;4.718;2023-07-30T07:26:37;4.27;;;2.17;;
13927;SDS011;7036;50.834;4.718;2023-07-30T07:29:10;5.87;;;2.47;;
13927;SDS011;7036;50.834;4.718;2023-07-30T07:31:37;5.40;;;2.80;;
13927;SDS011;7036;50.834;4.718;2023-07-30T07:34:04;6.33;;;2.30;;
13927;SDS011;7036;50.834;4.718;2023-07-30T07:36:31;4.10;;;2.13;;
13927;SDS011;7036;50.834;4.718;2023-07-30T07:38:58;7.40;;;2.80;;
13927;SDS011;7036;50.834;4.718;2023-07-30T07:41:25;6.40;;;2.50;;
13927;SDS011;7036;50.834;4.718;2023-07-30T07:43:52;4.47;;;2.47;;
13927;SDS011;7036;50.834;4.718;2023-07-30T07:46:19;8.93;;;2.93;;
13927;SDS011;7036;50.834;4.718;2023-07-30T07:48:47;4.30;;;2.57;;
13927;SDS011;7036;50.834;4.718;2023-07-30T07:51:13;9.80;;;2.57;;
13927;SDS011;7036;50.834;4.718;2023-07-30T07:53:40;5.03;;;2.40;;
13927;SDS011;7036;50.834;4.718;2023-07-30T07:56:07;5.00;;;2.73;;
13927;SDS011;7036;50.834;4.718;2023-07-30T07:58:34;8.27;;;2.60;;
13927;SDS011;7036;50.834;4.718;2023-07-30T08:01:01;8.57;;;2.70;;
13927;SDS011;7036;50.834;4.718;2023-07-30T08:03:29;9.77;;;3.43;;
13927;SDS011;7036;50.834;4.718;2023-07-30T08:05:56;9.57;;;3.10;;
13927;SDS011;7036;50.834;4.718;2023-07-30T08:08:24;8.33;;;3.00;;
13927;SDS011;7036;50.834;4.718;2023-07-30T08:10:50;8.40;;;2.90;;
13927;SDS011;7036;50.834;4.718;2023-07-30T08:13:17;13.30;;;3.20;;
13927;SDS011;7036;50.834;4.718;2023-07-30T08:15:44;6.50;;;3.03;;
13927;SDS011;7036;50.834;4.718;2023-07-30T08:18:11;8.30;;;3.00;;
13927;SDS011;7036;50.834;4.718;2023-07-30T08:20:38;6.30;;;2.57;;
13927;SDS011;7036;50.834;4.718;2023-07-30T08:23:04;5.80;;;2.83;;
13927;SDS011;7036;50.834;4.718;2023-07-30T08:25:32;8.47;;;2.50;;
13927;SDS011;7036;50.834;4.718;2023-07-30T08:27:58;6.43;;;2.40;;
13927;SDS011;7036;50.834;4.718;2023-07-30T08:30:25;9.33;;;3.10;;
13927;SDS011;7036;50.834;4.718;2023-07-30T08:32:52;4.50;;;2.53;;
13927;SDS011;7036;50.834;4.718;2023-07-30T08:35:20;6.73;;;2.67;;
13927;SDS011;7036;50.834;4.718;2023-07-30T08:37:47;5.60;;;2.40;;
13927;SDS011;7036;50.834;4.718;2023-07-30T08:40:14;6.13;;;2.90;;
13927;SDS011;7036;50.834;4.718;2023-07-30T08:42:41;7.57;;;2.80;;
13927;SDS011;7036;50.834;4.718;2023-07-30T08:45:08;5.23;;;2.83;;
13927;SDS011;7036;50.834;4.718;2023-07-30T08:47:35;8.17;;;2.53;;
13927;SDS011;7036;50.834;4.718;2023-07-30T08:50:02;4.87;;;2.60;;
13927;SDS011;7036;50.834;4.718;2023-07-30T08:52:29;4.90;;;2.33;;
13927;SDS011;7036;50.834;4.718;2023-07-30T08:54:57;5.53;;;2.40;;
13927;SDS011;7036;50.834;4.718;2023-07-30T08:57:23;5.60;;;2.53;;
13927;SDS011;7036;50.834;4.718;2023-07-30T08:59:53;8.27;;;3.07;;
13927;SDS011;7036;50.834;4.718;2023-07-30T09:02:18;5.47;;;2.87;;
13927;SDS011;7036;50.834;4.718;2023-07-30T09:04:45;6.70;;;2.60;;
13927;SDS011;7036;50.834;4.718;2023-07-30T09:07:11;5.80;;;3.10;;
13927;SDS011;7036;50.834;4.718;2023-07-30T09:09:38;7.23;;;2.67;;
13927;SDS011;7036;50.834;4.718;2023-07-30T09:12:05;6.63;;;2.40;;
13927;SDS011;7036;50.834;4.718;2023-07-30T09:14:33;5.90;;;2.40;;
13927;SDS011;7036;50.834;4.718;2023-07-30T09:16:59;6.40;;;2.47;;
13927;SDS011;7036;50.834;4.718;2023-07-30T09:19:26;12.20;;;3.20;;
13927;SDS011;7036;50.834;4.718;2023-07-30T09:21:54;11.80;;;3.47;;
13927;SDS011;7036;50.834;4.718;2023-07-30T09:24:27;9.30;;;2.97;;
13927;SDS011;7036;50.834;4.718;2023-07-30T09:26:54;9.60;;;2.90;;
13927;SDS011;7036;50.834;4.718;2023-07-30T09:29:21;11.63;;;3.13;;
13927;SDS011;7036;50.834;4.718;2023-07-30T09:31:49;8.27;;;3.00;;
13927;SDS011;7036;50.834;4.718;2023-07-30T09:34:17;5.50;;;2.30;;
13927;SDS011;7036;50.834;4.718;2023-07-30T09:36:44;10.90;;;3.03;;
13927;SDS011;7036;50.834;4.718;2023-07-30T09:39:17;5.13;;;2.70;;
13927;SDS011;7036;50.834;4.718;2023-07-30T09:41:49;10.77;;;2.90;;
13927;SDS011;7036;50.834;4.718;2023-07-30T09:44:16;5.00;;;2.33;;
13927;SDS011;7036;50.834;4.718;2023-07-30T09:46:42;10.30;;;2.97;;
13927;SDS011;7036;50.834;4.718;2023-07-30T09:49:09;6.23;;;2.70;;
13927;SDS011;7036;50.834;4.718;2023-07-30T09:51:38;8.87;;;2.60;;
13927;SDS011;7036;50.834;4.718;2023-07-30T09:54:10;4.50;;;2.47;;
13927;SDS011;7036;50.834;4.718;2023-07-30T09:56:38;7.47;;;2.63;;
13927;SDS011;7036;50.834;4.718;2023-07-30T09:59:05;3.63;;;2.47;;
13927;SDS011;7036;50.834;4.718;2023-07-30T10:01:32;7.67;;;2.57;;
13927;SDS011;7036;50.834;4.718;2023-07-30T10:04:07;8.87;;;2.60;;
13927;SDS011;7036;50.834;4.718;2023-07-30T10:06:32;6.43;;;2.50;;
13927;SDS011;7036;50.834;4.718;2023-07-30T10:08:59;6.70;;;2.70;;
13927;SDS011;7036;50.834;4.718;2023-07-30T10:11:26;6.33;;;2.30;;
13927;SDS011;7036;50.834;4.718;2023-07-30T10:13:52;7.30;;;2.47;;
13927;SDS011;7036;50.834;4.718;2023-07-30T10:16:24;6.10;;;2.57;;
13927;SDS011;7036;50.834;4.718;2023-07-30T10:18:46;5.07;;;2.33;;
13927;SDS011;7036;50.834;4.718;2023-07-30T10:21:21;6.57;;;2.20;;
13927;SDS011;7036;50.834;4.718;2023-07-30T10:23:50;6.50;;;2.83;;
13927;SDS011;7036;50.834;4.718;2023-07-30T10:26:17;4.60;;;2.33;;
13927;SDS011;7036;50.834;4.718;2023-07-30T10:28:44;4.97;;;2.40;;
13927;SDS011;7036;50.834;4.718;2023-07-30T10:31:11;6.27;;;2.43;;
13927;SDS011;7036;50.834;4.718;2023-07-30T10:33:50;5.07;;;2.13;;
13927;SDS011;7036;50.834;4.718;2023-07-30T10:37:02;5.33;;;2.30;;
13927;SDS011;7036;50.834;4.718;2023-07-30T10:39:20;3.97;;;2.20;;
13927;SDS011;7036;50.834;4.718;2023-07-30T10:41:38;4.43;;;2.30;;
13927;SDS011;7036;50.834;4.718;2023-07-30T10:44:04;4.30;;;1.83;;
13927;SDS011;7036;50.834;4.718;2023-07-30T10:46:32;4.43;;;2.10;;
13927;SDS011;7036;50.834;4.718;2023-07-30T10:48:58;3.87;;;1.87;;
13927;SDS011;7036;50.834;4.718;2023-07-30T10:51:25;6.27;;;2.80;;
13927;SDS011;7036;50.834;4.718;2023-07-30T10:53:52;7.90;;;2.50;;
13927;SDS011;7036;50.834;4.718;2023-07-30T10:56:22;6.80;;;2.10;;
13927;SDS011;7036;50.834;4.718;2023-07-30T10:58:49;4.33;;;2.33;;
13927;SDS011;7036;50.834;4.718;2023-07-30T11:01:15;4.60;;;2.23;;
13927;SDS011;7036;50.834;4.718;2023-07-30T11:03:42;4.70;;;2.57;;
13927;SDS011;7036;50.834;4.718;2023-07-30T11:06:09;6.27;;;2.50;;
13927;SDS011;7036;50.834;4.718;2023-07-30T11:08:40;5.63;;;2.27;;
13927;SDS011;7036;50.834;4.718;2023-07-30T11:11:06;5.73;;;2.23;;
13927;SDS011;7036;50.834;4.718;2023-07-30T11:13:40;3.67;;;1.90;;
13927;SDS011;7036;50.834;4.718;2023-07-30T11:16:05;5.67;;;1.97;;
13927;SDS011;7036;50.834;4.718;2023-07-30T11:18:32;5.10;;;2.33;;
13927;SDS011;7036;50.834;4.718;2023-07-30T11:21:20;3.63;;;2.10;;
13927;SDS011;7036;50.834;4.718;2023-07-30T11:23:29;4.60;;;1.90;;
13927;SDS011;7036;50.834;4.718;2023-07-30T11:25:56;3.67;;;1.70;;
13927;SDS011;7036;50.834;4.718;2023-07-30T11:28:29;7.47;;;2.53;;
13927;SDS011;7036;50.834;4.718;2023-07-30T11:30:58;6.33;;;2.23;;
13927;SDS011;7036;50.834;4.718;2023-07-30T11:33:25;4.93;;;2.27;;
13927;SDS011;7036;50.834;4.718;2023-07-30T11:35:52;3.73;;;2.00;;
13927;SDS011;7036;50.834;4.718;2023-07-30T11:38:19;5.23;;;2.00;;
13927;SDS011;7036;50.834;4.718;2023-07-30T11:40:46;4.43;;;1.90;;
13927;SDS011;7036;50.834;4.718;2023-07-30T11:43:13;4.53;;;1.97;;
13927;SDS011;7036;50.834;4.718;2023-07-30T11:45:40;4.13;;;1.70;;
13927;SDS011;7036;50.834;4.718;2023-07-30T11:48:07;4.27;;;2.40;;
13927;SDS011;7036;50.834;4.718;2023-07-30T11:53:15;3.03;;;1.70;;
13927;SDS011;7036;50.834;4.718;2023-07-30T11:55:43;3.87;;;1.90;;
13927;SDS011;7036;50.834;4.718;2023-07-30T11:58:10;5.17;;;2.00;;
13927;SDS011;7036;50.834;4.718;2023-07-30T12:00:37;6.60;;;2.70;;
13927;SDS011;7036;50.834;4.718;2023-07-30T12:03:03;3.43;;;1.73;;
13927;SDS011;7036;50.834;4.718;2023-07-30T12:05:33;3.63;;;1.70;;
13927;SDS011;7036;50.834;4.718;2023-07-30T12:08:03;4.10;;;2.13;;
13927;SDS011;7036;50.834;4.718;2023-07-30T12:10:42;5.03;;;2.27;;
13927;SDS011;7036;50.834;4.718;2023-07-30T12:13:18;6.10;;;2.23;;
13927;SDS011;7036;50.834;4.718;2023-07-30T12:15:50;3.27;;;1.83;;
13927;SDS011;7036;50.834;4.718;2023-07-30T12:18:17;6.37;;;1.97;;
13927;SDS011;7036;50.834;4.718;2023-07-30T12:20:44;2.33;;;1.60;;
13927;SDS011;7036;50.834;4.718;2023-07-30T12:23:11;5.37;;;1.90;;
13927;SDS011;7036;50.834;4.718;2023-07-30T12:25:38;2.53;;;1.70;;
13927;SDS011;7036;50.834;4.718;2023-07-30T12:28:05;6.70;;;2.00;;
13927;SDS011;7036;50.834;4.718;2023-07-30T12:30:32;2.90;;;1.97;;
13927;SDS011;7036;50.834;4.718;2023-07-30T12:32:58;3.77;;;1.83;;
13927;SDS011;7036;50.834;4.718;2023-07-30T12:35:25;3.07;;;1.40;;
13927;SDS011;7036;50.834;4.718;2023-07-30T12:37:52;4.00;;;1.70;;
13927;SDS011;7036;50.834;4.718;2023-07-30T12:40:19;6.80;;;1.80;;
13927;SDS011;7036;50.834;4.718;2023-07-30T12:42:46;2.53;;;1.70;;
13927;SDS011;7036;50.834;4.718;2023-07-30T12:45:13;4.67;;;2.17;;
13927;SDS011;7036;50.834;4.718;2023-07-30T12:47:42;5.27;;;1.93;;
13927;SDS011;7036;50.834;4.718;2023-07-30T12:50:09;3.87;;;1.77;;
13927;SDS011;7036;50.834;4.718;2023-07-30T12:52:36;8.40;;;1.93;;
13927;SDS011;7036;50.834;4.718;2023-07-30T12:55:03;3.60;;;1.67;;
13927;SDS011;7036;50.834;4.718;2023-07-30T12:57:30;5.13;;;1.87;;
13927;SDS011;7036;50.834;4.718;2023-07-30T12:59:57;2.90;;;1.80;;
13927;SDS011;7036;50.834;4.718;2023-07-30T13:02:24;5.03;;;1.90;;
13927;SDS011;7036;50.834;4.718;2023-07-30T13:04:51;4.30;;;1.87;;
13927;SDS011;7036;50.834;4.718;2023-07-30T13:07:18;3.43;;;1.67;;
13927;SDS011;7036;50.834;4.718;2023-07-30T13:09:45;5.33;;;2.20;;
13927;SDS011;7036;50.834;4.718;2023-07-30T13:12:12;3.47;;;1.63;;
13927;SDS011;7036;50.834;4.718;2023-07-30T13:14:39;3.40;;;1.83;;
13927;SDS011;7036;50.834;4.718;2023-07-30T13:17:06;6.23;;;2.37;;
13927;SDS011;7036;50.834;4.718;2023-07-30T13:19:33;4.97;;;2.03;;
13927;SDS011;7036;50.834;4.718;2023-07-30T13:22:00;9.03;;;2.17;;
13927;SDS011;7036;50.834;4.718;2023-07-30T13:24:27;3.60;;;1.93;;
13927;SDS011;7036;50.834;4.718;2023-07-30T13:26:54;4.17;;;2.27;;
13927;SDS011;7036;50.834;4.718;2023-07-30T13:29:20;3.83;;;2.07;;
13927;SDS011;7036;50.834;4.718;2023-07-30T13:31:47;10.93;;;2.37;;
13927;SDS011;7036;50.834;4.718;2023-07-30T13:34:14;5.10;;;1.80;;
13927;SDS011;7036;50.834;4.718;2023-07-30T13:36:41;4.53;;;2.10;;
13927;SDS011;7036;50.834;4.718;2023-07-30T13:39:08;3.67;;;1.80;;
13927;SDS011;7036;50.834;4.718;2023-07-30T13:41:35;4.37;;;1.80;;
13927;SDS011;7036;50.834;4.718;2023-07-30T13:44:02;5.40;;;2.13;;
13927;SDS011;7036;50.834;4.718;2023-07-30T13:46:29;5.10;;;1.93;;
13927;SDS011;7036;50.834;4.718;2023-07-30T13:48:56;4.03;;;2.00;;
13927;SDS011;7036;50.834;4.718;2023-07-30T13:51:23;4.67;;;2.13;;
13927;SDS011;7036;50.834;4.718;2023-07-30T13:53:50;12.30;;;2.70;;
13927;SDS011;7036;50.834;4.718;2023-07-30T13:56:17;11.50;;;2.73;;
13927;SDS011;7036;50.834;4.718;2023-07-30T13:58:44;8.30;;;2.27;;
13927;SDS011;7036;50.834;4.718;2023-07-30T14:01:11;7.50;;;2.23;;
13927;SDS011;7036;50.834;4.718;2023-07-30T14:03:37;7.10;;;2.37;;
13927;SDS011;7036;50.834;4.718;2023-07-30T14:06:05;8.75;;;2.35;;
13927;SDS011;7036;50.834;4.718;2023-07-30T14:08:32;5.63;;;1.97;;
13927;SDS011;7036;50.834;4.718;2023-07-30T14:10:59;9.10;;;2.10;;
13927;SDS011;7036;50.834;4.718;2023-07-30T14:13:26;5.23;;;2.10;;
13927;SDS011;7036;50.834;4.718;2023-07-30T14:15:53;9.53;;;1.90;;
13927;SDS011;7036;50.834;4.718;2023-07-30T14:18:21;6.00;;;2.17;;
13927;SDS011;7036;50.834;4.718;2023-07-30T14:20:47;5.43;;;1.97;;
13927;SDS011;7036;50.834;4.718;2023-07-30T14:23:14;4.60;;;2.10;;
13927;SDS011;7036;50.834;4.718;2023-07-30T14:25:41;4.90;;;1.70;;
13927;SDS011;7036;50.834;4.718;2023-07-30T14:28:08;3.03;;;1.90;;
13927;SDS011;7036;50.834;4.718;2023-07-30T14:30:35;5.20;;;1.63;;
13927;SDS011;7036;50.834;4.718;2023-07-30T14:33:02;6.27;;;1.93;;
13927;SDS011;7036;50.834;4.718;2023-07-30T14:35:29;3.90;;;2.03;;
13927;SDS011;7036;50.834;4.718;2023-07-30T14:37:56;3.27;;;2.07;;
13927;SDS011;7036;50.834;4.718;2023-07-30T14:40:23;3.50;;;1.87;;
13927;SDS011;7036;50.834;4.718;2023-07-30T14:42:50;9.33;;;1.90;;
13927;SDS011;7036;50.834;4.718;2023-07-30T14:45:17;3.57;;;1.97;;
13927;SDS011;7036;50.834;4.718;2023-07-30T14:47:45;4.70;;;2.40;;
13927;SDS011;7036;50.834;4.718;2023-07-30T14:50:11;4.53;;;1.93;;
13927;SDS011;7036;50.834;4.718;2023-07-30T14:52:38;6.47;;;2.00;;
13927;SDS011;7036;50.834;4.718;2023-07-30T14:55:05;2.40;;;1.77;;
13927;SDS011;7036;50.834;4.718;2023-07-30T14:57:32;4.20;;;2.30;;
13927;SDS011;7036;50.834;4.718;2023-07-30T14:59:59;3.97;;;2.00;;
13927;SDS011;7036;50.834;4.718;2023-07-30T15:04:58;4.63;;;1.80;;